Terminal Aerodrome Forecast
Issued by NWS

Home | Current Version | Previous Version | Text Only | Print | Product List | Glossary On
Versions: 1 2 3 4 5 6 7 8 9 10 11 12 13 14 15 16
000
FTUS45 KABQ 270500 RRA
TAFAEG
TAF
KAEG 270542Z 2706/2806 12010G16KT 3SM -SN BR OVC020
      TEMPO 2706/2709 36008KT 1/2SM SN FZFG OVC005
     FM270900 13010G18KT 4SM -SN BR OVC015
      TEMPO 2709/2713 3/4SM -SN BR OVC005
     FM271400 02010KT P6SM BKN035 BKN060
     FM272000 35008KT P6SM VCSH SCT040 BKN060 PROB30 2723/2805
      10013G21KT 3SM -SHSNRA OVC025=

USA.gov is the U.S. government's official web portal to all federal, state and local government web resources and services.